Barksdale Air Force Base
KBAD : now visible

Airfield :











YOU CAN JOIN US ON...

 
LOGIN :

Register | Disclaimer

   EN    FR    IT 

 









Legend :    VFR   Marginal VFR   IFR   Intensive IFR   Very Intensive IFR
Visi :
Ceiling :
>= 8 km
>= 3000ft
5 to 8 km
1000 to 3000 ft
1500m to 5 km
500 to 1000 ft
800 to 1500m
200 to 500 ft
< 800m
< 200 ft
Symbols :   Thunderstorms  Fog  Heavy snow  Heavy precipitations  Wind > 20 kt






- Airport Elevation : 166 ft


KBAD - Barksdale Air Force Base

CURRENT METAR :
  • 011555Z 03003KT 10SM -RA OVC007 01/M01 A3037 RMK AO2A SLP290 P0000 T00091012

EXPIRED METARs :
  • 011459Z 02007KT 10SM -RA OVC007 01/M01 A3035 RMK AO2A SLP283
  • 011455Z 01006KT 10SM -RA OVC006 01/M01 A3035 RMK AO2A RAB1351 SLP283 P0002 60005 T00091009 52006
  • 011431Z 04004KT 10SM -RA OVC006 01/M01 A3035 RMK AO2A RAB51 SLP283
  • 011425Z 01004KT 10SM -RA OVC007 01/M01 A3035 RMK AO2A RAB51 CIG 006 RWY15 SLP283
  • 011412Z 01007KT 10SM -RA OVC007 01/M01 A3034 RMK AO2A RAB51 SLP280
  • 011355Z 02004KT 10SM -RA OVC006 01/M01 A3034 RMK AO2A SLP280 P0001 T00071012
  • 011315Z 02003KT 10SM -RA OVC005 01/M01 A3034 RMK AO2A SLP280

TAF TAF KBAD
Valid from the 01 at 12:00 until the 02 at 18:00 UTC


011200Z 0112/0218 02008KT 9999 -RAPL OVC009 650092 QNH3034INS
TEMPO 0112/0115 -FZRA OVC002
BECMG 0119/0120 03008KT 4800 -RA BR OVC005 QNH3016INS TX02/0121Z TN00/0113Z
KZFW FIR / North America



MET'MAP, your aeronautical weather chart ! - Copyright ORBIFLY December 2007 - Disclaimer

ORBIFLY MET'MAP TEAM :

Programming & Development : Alexandra Zaïnal
Original concept : Baudouin d'Aumeries
Technical & hardware support : Manuel Goepfert
Assistance : Marc-Olivier Méhu




SOURCES & CREDITS :

   NOAA       Earth
Advisory